Time;durP1;ratioP1;P1;durP2;ratioP2;P2;SDS_P1;SDS_P2;PMS_P1;PMS_P2;Temp;Humidity;BMP_temperature;BMP_pressure;BME280_temperature;BME280_humidity;BME280_pressure;Samples;Min_cycle;Max_cycle;Signal;HPM_P1;HPM_P2
2023/01/03 04:01:29;;;;;;;;;;;4.90;99.90;;;;;;5741878;23;19926;-69
2023/01/03 04:03:58;;;;;;;;;;;5.00;99.90;;;;;;4978881;28;19965;-66
2023/01/03 04:06:28;;;;;;;;;;;5.10;99.90;;;;;;4973103;28;19953;-68
2023/01/03 04:08:54;;;;;;;;;;;5.10;99.90;;;;;;4974410;28;19980;-69
2023/01/03 04:11:21;;;;;;;;;;;5.20;99.90;;;;;;4976517;28;20418;-69
2023/01/03 04:13:47;;;;;;;;;;;5.30;99.90;;;;;;4970562;28;19961;-70
2023/01/03 04:16:14;;;;;;;;;;;5.30;99.90;;;;;;4970723;28;19926;-68
2023/01/03 04:18:42;;;;;;;;;;;5.40;99.90;;;;;;4969715;28;20020;-70
2023/01/03 04:21:09;;;;;;;;;;;5.40;99.90;;;;;;4968840;28;19961;-71
2023/01/03 04:23:35;;;;;;;;;;;5.40;99.90;;;;;;4970972;28;19969;-70
2023/01/03 04:26:02;;;;;;;;;;;5.50;99.90;;;;;;4970950;28;19985;-71
2023/01/03 04:28:29;;;;;;;;;;;5.50;99.90;;;;;;4971852;28;20008;-71
2023/01/03 04:30:55;;;;;;;;;;;5.60;99.90;;;;;;4970365;28;19977;-71
2023/01/03 04:33:22;;;;;;;;;;;5.60;99.90;;;;;;4970855;28;20408;-69
2023/01/03 04:35:50;;;;;;;;;;;5.60;99.90;;;;;;4970849;28;20012;-70
2023/01/03 04:38:16;;;;;;;;;;;5.60;99.90;;;;;;4971584;28;20020;-69
2023/01/03 04:40:43;;;;;;;;;;;5.70;99.90;;;;;;4970402;28;19926;-71
2023/01/03 04:45:54;;;;;;;;;;;5.80;99.90;;;;;;4967750;28;19922;-69
2023/01/03 04:48:21;;;;;;;;;;;5.80;99.90;;;;;;4969208;28;19965;-71
2023/01/03 04:50:53;;;;;;;;;;;5.80;99.90;;;;;;4970677;28;19934;-70
2023/01/03 04:53:19;;;;;;;;;;;5.80;99.90;;;;;;4972251;28;19942;-71
2023/01/03 04:55:46;;;;;;;;;;;5.80;99.90;;;;;;4974285;28;19926;-71
2023/01/03 04:58:13;;;;;;;;;;;5.80;99.90;;;;;;4981845;28;20384;-68
2023/01/03 05:00:40;;;;;;;;;;;5.80;99.90;;;;;;4973712;28;19926;-69
2023/01/03 05:03:07;;;;;;;;;;;5.90;99.90;;;;;;4981850;28;19941;-70
2023/01/03 05:05:36;;;;;;;;;;;5.90;99.90;;;;;;4974200;28;19930;-70
2023/01/03 05:08:05;;;;;;;;;;;5.80;99.90;;;;;;4974086;28;19926;-70
2023/01/03 05:10:31;;;;;;;;;;;5.80;99.90;;;;;;4973440;28;20393;-68
2023/01/03 05:12:59;;;;;;;;;;;5.60;99.90;;;;;;4974003;28;20396;-69
2023/01/03 05:15:26;;;;;;;;;;;5.50;99.90;;;;;;4973763;28;20396;-73
2023/01/03 05:17:53;;;;;;;;;;;5.30;99.90;;;;;;4970330;28;19930;-72
2023/01/03 05:25:49;;;;;;;;;;;5.10;99.90;;;;;;4973796;28;20286;-70
2023/01/03 05:28:16;;;;;;;;;;;5.10;99.90;;;;;;4981199;28;19926;-70
2023/01/03 05:30:43;;;;;;;;;;;5.00;99.90;;;;;;4973318;28;20431;-72
2023/01/03 05:33:10;;;;;;;;;;;4.90;99.90;;;;;;4973583;28;19926;-71
2023/01/03 05:35:37;;;;;;;;;;;4.80;99.90;;;;;;4982259;28;19949;-71
2023/01/03 05:38:03;;;;;;;;;;;4.80;99.90;;;;;;4973656;28;19996;-70
2023/01/03 05:40:32;;;;;;;;;;;4.70;99.90;;;;;;4983945;28;19976;-71
2023/01/03 05:42:58;;;;;;;;;;;4.60;99.90;;;;;;4981525;28;19930;-71
2023/01/03 05:45:26;;;;;;;;;;;4.60;99.90;;;;;;4973584;28;19926;-70
2023/01/03 05:47:53;;;;;;;;;;;4.50;99.90;;;;;;4970723;28;19930;-71
2023/01/03 05:50:19;;;;;;;;;;;4.50;99.90;;;;;;4973109;28;19933;-69
2023/01/03 05:52:47;;;;;;;;;;;4.50;99.90;;;;;;4981917;28;19930;-71
2023/01/03 05:55:15;;;;;;;;;;;4.70;99.90;;;;;;4973305;28;20319;-71
2023/01/03 05:57:43;;;;;;;;;;;4.80;99.90;;;;;;4978189;28;20304;-70
2023/01/03 06:00:10;;;;;;;;;;;4.70;99.90;;;;;;4972978;28;19926;-70
2023/01/03 06:02:37;;;;;;;;;;;4.80;99.90;;;;;;4971309;28;19926;-71
2023/01/03 06:05:04;;;;;;;;;;;4.90;99.90;;;;;;4972885;28;19926;-70
2023/01/03 06:07:32;;;;;;;;;;;4.90;99.90;;;;;;4973120;28;19926;-70
2023/01/03 06:09:59;;;;;;;;;;;4.90;99.90;;;;;;4972358;28;19926;-70
2023/01/03 06:12:26;;;;;;;;;;;4.90;99.90;;;;;;4972636;28;19926;-70
2023/01/03 06:14:54;;;;;;;;;;;4.80;99.90;;;;;;4972994;28;19972;-71
2023/01/03 06:20:06;;;;;;;;;;;4.70;99.90;;;;;;4970221;28;20013;-70
2023/01/03 06:22:32;;;;;;;;;;;4.60;99.90;;;;;;4972690;28;20014;-70
2023/01/03 06:24:59;;;;;;;;;;;4.60;99.90;;;;;;4978103;28;19930;-70
2023/01/03 06:27:26;;;;;;;;;;;4.60;99.90;;;;;;4971585;28;19933;-73
2023/01/03 06:29:53;;;;;;;;;;;4.70;99.90;;;;;;4974620;28;19938;-74
2023/01/03 06:32:22;;;;;;;;;;;4.80;99.90;;;;;;4967640;28;19933;-73
2023/01/03 06:34:49;;;;;;;;;;;4.90;99.90;;;;;;4970435;28;19934;-75
2023/01/03 06:37:15;;;;;;;;;;;4.90;99.90;;;;;;4972222;28;19930;-75
2023/01/03 06:39:42;;;;;;;;;;;4.90;99.90;;;;;;4969003;28;20617;-77
2023/01/03 06:53:13;;;;;;;;;;;4.80;99.90;;;;;;4984380;28;19922;-72
2023/01/03 06:55:40;;;;;;;;;;;5.00;99.90;;;;;;4971823;28;19973;-71
2023/01/03 06:58:07;;;;;;;;;;;5.10;99.90;;;;;;4971191;28;20359;-72
2023/01/03 07:00:35;;;;;;;;;;;5.20;99.90;;;;;;4969932;28;20341;-70
2023/01/03 07:03:03;;;;;;;;;;;5.20;99.90;;;;;;4972074;28;19930;-71
2023/01/03 07:05:30;;;;;;;;;;;5.20;99.90;;;;;;4969443;28;20393;-70
2023/01/03 07:07:57;;;;;;;;;;;5.20;99.90;;;;;;4981545;28;19934;-75
2023/01/03 07:10:23;;;;;;;;;;;5.20;99.90;;;;;;4970963;28;19934;-71
2023/01/03 07:15:35;;;;;;;;;;;5.20;99.90;;;;;;4971438;28;20709;-71
2023/01/03 07:18:03;;;;;;;;;;;5.20;99.90;;;;;;4975000;28;19927;-71
2023/01/03 07:20:30;;;;;;;;;;;5.20;99.90;;;;;;4971202;28;19970;-71
2023/01/03 07:22:57;;;;;;;;;;;5.20;99.90;;;;;;4971609;28;20389;-71
2023/01/03 07:25:23;;;;;;;;;;;5.20;99.90;;;;;;4978818;28;20289;-71
2023/01/03 07:27:54;;;;;;;;;;;5.20;99.90;;;;;;4971212;28;20360;-71
2023/01/03 07:30:21;;;;;;;;;;;5.20;99.90;;;;;;4966813;28;19973;-72
2023/01/03 07:32:47;;;;;;;;;;;5.20;99.90;;;;;;4970620;28;19938;-71
2023/01/03 07:35:15;;;;;;;;;;;5.10;99.90;;;;;;4971660;28;19973;-70
2023/01/03 07:37:42;;;;;;;;;;;5.20;99.90;;;;;;4973361;28;19980;-78
2023/01/03 07:40:09;;;;;;;;;;;5.20;99.90;;;;;;4972269;28;19933;-71
2023/01/03 07:45:21;;;;;;;;;;;5.20;99.90;;;;;;4971162;28;19929;-72
2023/01/03 07:47:48;;;;;;;;;;;5.20;99.90;;;;;;4969621;28;19980;-72
2023/01/03 07:50:16;;;;;;;;;;;5.30;99.90;;;;;;4985999;28;19937;-71
2023/01/03 07:52:43;;;;;;;;;;;5.30;99.90;;;;;;4976403;28;19949;-71
2023/01/03 07:55:10;;;;;;;;;;;5.30;99.90;;;;;;4970861;28;20404;-71
2023/01/03 07:57:37;;;;;;;;;;;5.30;99.90;;;;;;4971620;28;20463;-72
2023/01/03 08:00:04;;;;;;;;;;;5.30;99.90;;;;;;4974465;28;20397;-72
2023/01/03 08:02:39;;;;;;;;;;;5.40;99.90;;;;;;4971989;28;19926;-72
2023/01/03 08:05:06;;;;;;;;;;;5.30;99.90;;;;;;4970974;28;20345;-73
2023/01/03 08:07:35;;;;;;;;;;;5.30;99.90;;;;;;4972001;28;19930;-75
2023/01/03 08:15:30;;;;;;;;;;;5.20;99.90;;;;;;4970351;28;20389;-74
2023/01/03 08:17:57;;;;;;;;;;;5.20;99.90;;;;;;4969685;28;19926;-72
2023/01/03 08:20:24;;;;;;;;;;;5.30;99.90;;;;;;4968986;28;20376;-67
2023/01/03 08:22:52;;;;;;;;;;;5.30;99.90;;;;;;4967225;28;19926;-70
2023/01/03 08:25:19;;;;;;;;;;;5.40;99.90;;;;;;4968487;28;20005;-71
2023/01/03 08:27:46;;;;;;;;;;;5.40;99.90;;;;;;4988845;28;19934;-70
2023/01/03 08:30:13;;;;;;;;;;;5.50;99.90;;;;;;4975763;28;20352;-71
2023/01/03 08:32:39;;;;;;;;;;;5.50;99.90;;;;;;4975644;28;19938;-71
2023/01/03 08:35:06;;;;;;;;;;;5.60;99.90;;;;;;4972950;28;20321;-70
2023/01/03 08:37:33;;;;;;;;;;;5.70;99.90;;;;;;4971094;28;19934;-70
2023/01/03 08:40:03;;;;;;;;;;;5.80;99.90;;;;;;4969356;28;19933;-70
2023/01/03 08:42:31;;;;;;;;;;;5.90;99.90;;;;;;4975581;28;19926;-70
2023/01/03 08:45:00;;;;;;;;;;;6.10;99.90;;;;;;4975266;28;19926;-70
2023/01/03 08:47:27;;;;;;;;;;;6.20;99.90;;;;;;4974585;28;19962;-71
2023/01/03 08:49:55;;;;;;;;;;;6.40;99.90;;;;;;4967765;28;19930;-71
2023/01/03 08:52:21;;;;;;;;;;;6.60;99.90;;;;;;4979773;28;19926;-70
2023/01/03 08:54:48;;;;;;;;;;;6.80;99.90;;;;;;4974373;28;19926;-70
2023/01/03 08:57:16;;;;;;;;;;;7.00;99.90;;;;;;4969689;28;19934;-70
2023/01/03 08:59:43;;;;;;;;;;;7.10;99.90;;;;;;4974394;28;20305;-70
2023/01/03 09:02:10;;;;;;;;;;;7.20;99.90;;;;;;4973588;28;19933;-70
2023/01/03 09:04:37;;;;;;;;;;;7.20;99.90;;;;;;4975133;28;19927;-70
2023/01/03 09:07:05;;;;;;;;;;;7.30;99.90;;;;;;4982936;28;20021;-70
2023/01/03 09:09:31;;;;;;;;;;;7.40;99.90;;;;;;4977365;28;19947;-70
2023/01/03 09:11:58;;;;;;;;;;;7.40;99.90;;;;;;4976067;28;20360;-71
2023/01/03 09:14:26;;;;;;;;;;;7.40;99.90;;;;;;4985061;28;19937;-70
2023/01/03 09:16:53;;;;;;;;;;;7.50;99.90;;;;;;4978499;28;19930;-70
2023/01/03 09:19:20;;;;;;;;;;;7.60;99.90;;;;;;4976734;28;19929;-70
2023/01/03 09:21:47;;;;;;;;;;;7.70;99.90;;;;;;4973580;28;19941;-71
2023/01/03 09:24:13;;;;;;;;;;;7.80;99.90;;;;;;4975565;28;19930;-71
2023/01/03 09:26:40;;;;;;;;;;;7.90;99.90;;;;;;4982929;28;19926;-71
2023/01/03 09:29:07;;;;;;;;;;;8.10;99.90;;;;;;4975423;28;19938;-70
2023/01/03 09:31:35;;;;;;;;;;;8.30;99.90;;;;;;4979945;28;19972;-71
2023/01/03 09:34:04;;;;;;;;;;;8.50;99.90;;;;;;4977350;28;19930;-70
2023/01/03 09:36:31;;;;;;;;;;;8.70;99.90;;;;;;4977419;28;20312;-71
2023/01/03 09:38:58;;;;;;;;;;;8.90;99.90;;;;;;4977356;28;20017;-71
2023/01/03 09:41:26;;;;;;;;;;;8.90;99.90;;;;;;4966301;28;19949;-71
2023/01/03 09:43:55;;;;;;;;;;;9.00;99.90;;;;;;4969727;28;19993;-71
2023/01/03 09:46:23;;;;;;;;;;;9.10;99.90;;;;;;4969398;28;19973;-72
2023/01/03 09:48:52;;;;;;;;;;;9.10;99.90;;;;;;4971177;28;19926;-71
2023/01/03 10:05:23;;;;;;;;;;;9.40;99.90;;;;;;4967158;28;19984;-71
2023/01/03 10:07:59;;;;;;;;;;;9.60;99.90;;;;;;4972948;28;19927;-71
2023/01/03 10:10:30;;;;;;;;;;;9.70;99.90;;;;;;4965382;28;19936;-72
2023/01/03 10:13:07;;;;;;;;;;;9.80;99.90;;;;;;4972879;28;19926;-71
2023/01/03 10:15:38;;;;;;;;;;;9.80;99.90;;;;;;4973174;28;19972;-71
2023/01/03 10:18:09;;;;;;;;;;;10.00;99.90;;;;;;4975988;28;19934;-71
2023/01/03 10:20:42;;;;;;;;;;;10.10;99.90;;;;;;4972223;28;19938;-70
2023/01/03 10:23:10;;;;;;;;;;;10.10;99.90;;;;;;4971818;28;19976;-71
2023/01/03 10:25:37;;;;;;;;;;;10.10;99.90;;;;;;4971089;28;19925;-71
2023/01/03 10:28:09;;;;;;;;;;;10.20;99.90;;;;;;4972298;28;19926;-71
2023/01/03 10:30:43;;;;;;;;;;;10.30;99.90;;;;;;4973456;28;20336;-72
2023/01/03 10:33:20;;;;;;;;;;;12.80;99.90;;;;;;4972892;28;20448;-72
2023/01/03 10:35:50;;;;;;;;;;;16.40;99.90;;;;;;4976755;28;19934;-72
2023/01/03 10:38:17;;;;;;;;;;;17.90;99.90;;;;;;4972228;28;19937;-71
2023/01/03 10:40:45;;;;;;;;;;;17.50;99.90;;;;;;4976869;28;20410;-72
2023/01/03 10:43:16;;;;;;;;;;;17.10;99.90;;;;;;4972281;28;19926;-72
2023/01/03 10:45:56;;;;;;;;;;;17.10;99.90;;;;;;4978732;28;20017;-72
2023/01/03 10:48:23;;;;;;;;;;;16.40;99.90;;;;;;4983556;28;20345;-72
2023/01/03 10:50:52;;;;;;;;;;;14.50;99.90;;;;;;4978762;28;19926;-72
2023/01/03 10:53:21;;;;;;;;;;;14.80;99.90;;;;;;4980592;28;20403;-71
2023/01/03 10:55:49;;;;;;;;;;;13.80;99.90;;;;;;4972199;28;19938;-71
2023/01/03 10:58:17;;;;;;;;;;;13.30;99.90;;;;;;4971388;28;19942;-72
2023/01/03 11:00:44;;;;;;;;;;;11.90;99.90;;;;;;4971662;28;19927;-73
2023/01/03 11:03:12;;;;;;;;;;;10.90;99.90;;;;;;4979269;28;19930;-72
2023/01/03 11:05:40;;;;;;;;;;;10.70;99.90;;;;;;4971857;28;19926;-73
2023/01/03 11:08:14;;;;;;;;;;;10.50;99.90;;;;;;4971638;28;20043;-72
2023/01/03 11:10:49;;;;;;;;;;;10.40;99.90;;;;;;4971583;28;19926;-72
2023/01/03 11:13:18;;;;;;;;;;;10.30;99.90;;;;;;4982914;28;19933;-72
2023/01/03 11:15:44;;;;;;;;;;;10.20;99.90;;;;;;4971795;28;19961;-72
2023/01/03 11:18:16;;;;;;;;;;;10.20;99.90;;;;;;4977112;28;19926;-71
2023/01/03 11:20:45;;;;;;;;;;;10.20;99.90;;;;;;4971172;28;19936;-72
2023/01/03 11:23:16;;;;;;;;;;;10.30;99.90;;;;;;4978029;28;20373;-71
2023/01/03 11:25:48;;;;;;;;;;;10.40;99.90;;;;;;4966768;28;20389;-70
2023/01/03 11:28:45;;;;;;;;;;;10.40;99.90;;;;;;4971479;28;19934;-71
2023/01/03 11:31:16;;;;;;;;;;;10.30;99.90;;;;;;4923611;29;19981;-72
2023/01/03 11:33:49;;;;;;;;;;;10.80;99.90;;;;;;4961208;28;19937;-71
2023/01/03 11:36:22;;;;;;;;;;;10.70;99.90;;;;;;4971620;28;19953;-72
2023/01/03 11:38:55;;;;;;;;;;;10.80;99.90;;;;;;4974668;28;21299;-71
2023/01/03 11:41:31;;;;;;;;;;;10.50;99.90;;;;;;4971408;28;19927;-72
2023/01/03 11:44:11;;;;;;;;;;;11.00;99.90;;;;;;4964376;28;19926;-72
2023/01/03 11:46:45;;;;;;;;;;;10.90;99.90;;;;;;4971395;28;19941;-72
2023/01/03 11:49:20;;;;;;;;;;;13.00;99.90;;;;;;4978087;28;20365;-72
2023/01/03 11:51:52;;;;;;;;;;;16.60;99.90;;;;;;4970743;28;19934;-76
2023/01/03 11:54:32;;;;;;;;;;;16.90;99.90;;;;;;4970390;28;19930;-68
2023/01/03 11:57:03;;;;;;;;;;;17.20;99.90;;;;;;4975348;28;19926;-76
2023/01/03 11:59:41;;;;;;;;;;;15.80;99.90;;;;;;4969992;28;19933;-76
2023/01/03 12:02:41;;;;;;;;;;;17.50;99.90;;;;;;4974782;28;19925;-72
2023/01/03 12:05:20;;;;;;;;;;;17.60;99.90;;;;;;4981747;28;19926;-73
2023/01/03 12:07:53;;;;;;;;;;;21.00;99.90;;;;;;4971568;28;19934;-72
2023/01/03 12:10:24;;;;;;;;;;;19.20;99.90;;;;;;4964425;28;19930;-72
2023/01/03 12:13:00;;;;;;;;;;;19.80;99.90;;;;;;4967771;28;19926;-73
2023/01/03 12:15:31;;;;;;;;;;;19.60;99.90;;;;;;4969001;28;19936;-74
2023/01/03 12:18:01;;;;;;;;;;;20.10;99.90;;;;;;4971080;28;19926;-75
2023/01/03 12:20:29;;;;;;;;;;;17.20;99.90;;;;;;4970169;28;19955;-74
2023/01/03 12:23:00;;;;;;;;;;;17.90;99.90;;;;;;4977535;28;19926;-74
2023/01/03 12:25:30;;;;;;;;;;;18.10;99.90;;;;;;4970346;28;19988;-74
2023/01/03 12:28:01;;;;;;;;;;;19.40;99.90;;;;;;4970471;28;20476;-76
2023/01/03 12:30:34;;;;;;;;;;;20.20;99.90;;;;;;4968675;28;19927;-72
2023/01/03 12:33:05;;;;;;;;;;;21.70;99.90;;;;;;4970726;28;19981;-74
2023/01/03 12:35:34;;;;;;;;;;;17.80;99.90;;;;;;4970915;28;19926;-74
2023/01/03 12:38:04;;;;;;;;;;;16.10;99.90;;;;;;4970571;28;19933;-68
2023/01/03 12:40:39;;;;;;;;;;;16.30;99.90;;;;;;4976931;28;19926;-74
2023/01/03 12:43:10;;;;;;;;;;;17.10;99.90;;;;;;4971120;28;19926;-74
2023/01/03 12:45:40;;;;;;;;;;;18.20;99.90;;;;;;4968551;28;19989;-74
2023/01/03 12:48:14;;;;;;;;;;;17.00;99.90;;;;;;4970371;28;19934;-74
2023/01/03 12:50:43;;;;;;;;;;;14.40;99.90;;;;;;4967625;28;19990;-74
2023/01/03 12:53:13;;;;;;;;;;;13.10;99.90;;;;;;4970215;28;19926;-73
2023/01/03 12:55:48;;;;;;;;;;;13.20;99.90;;;;;;4975074;28;19926;-74
2023/01/03 12:58:26;;;;;;;;;;;12.70;99.90;;;;;;4970242;28;19934;-73
2023/01/03 13:00:56;;;;;;;;;;;12.30;99.90;;;;;;4966831;28;19934;-76
2023/01/03 13:03:25;;;;;;;;;;;12.50;99.90;;;;;;4961275;28;20025;-74
2023/01/03 13:05:55;;;;;;;;;;;11.90;99.90;;;;;;4968849;28;20281;-75
2023/01/03 13:08:28;;;;;;;;;;;11.60;99.90;;;;;;4970199;28;19926;-75
2023/01/03 13:10:58;;;;;;;;;;;11.50;99.90;;;;;;4980449;28;19930;-75
2023/01/03 13:13:25;;;;;;;;;;;11.60;99.90;;;;;;4970056;28;19927;-74
2023/01/03 13:15:53;;;;;;;;;;;11.40;99.90;;;;;;4971635;28;19926;-75
2023/01/03 13:18:30;;;;;;;;;;;10.90;99.90;;;;;;4972284;28;19933;-73
2023/01/03 13:20:57;;;;;;;;;;;11.30;99.90;;;;;;4972136;28;19973;-72
2023/01/03 13:23:56;;;;;;;;;;;11.60;99.90;;;;;;4974653;28;20452;-75
2023/01/03 13:26:25;;;;;;;;;;;12.70;99.90;;;;;;4969846;28;19926;-75
2023/01/03 13:28:52;;;;;;;;;;;12.00;99.90;;;;;;4975830;28;19985;-74
2023/01/03 13:31:46;;;;;;;;;;;13.60;99.90;;;;;;4973465;28;19941;-76
2023/01/03 13:34:17;;;;;;;;;;;14.40;99.90;;;;;;4972309;28;20012;-75
2023/01/03 13:36:59;;;;;;;;;;;14.70;99.90;;;;;;4973120;28;20377;-75
2023/01/03 13:39:37;;;;;;;;;;;15.30;99.90;;;;;;4975948;28;19926;-74
2023/01/03 13:42:06;;;;;;;;;;;15.60;99.90;;;;;;4975118;28;20422;-74
2023/01/03 13:44:33;;;;;;;;;;;15.80;99.90;;;;;;4974157;28;20408;-75
2023/01/03 13:46:59;;;;;;;;;;;16.40;99.90;;;;;;4988332;28;19934;-74
2023/01/03 13:49:28;;;;;;;;;;;15.90;99.90;;;;;;4977408;28;20364;-75
2023/01/03 13:51:55;;;;;;;;;;;15.80;99.90;;;;;;4984648;28;19936;-77
2023/01/03 13:54:27;;;;;;;;;;;16.20;99.90;;;;;;4983208;28;19926;-75
2023/01/03 13:56:58;;;;;;;;;;;15.00;99.90;;;;;;4977120;28;19986;-74
2023/01/03 13:59:30;;;;;;;;;;;15.20;99.90;;;;;;4979246;28;19968;-75
2023/01/03 14:02:01;;;;;;;;;;;14.20;99.90;;;;;;4980178;28;20013;-73
2023/01/03 14:04:35;;;;;;;;;;;13.80;99.90;;;;;;4984184;28;19930;-75
2023/01/03 14:07:09;;;;;;;;;;;13.80;99.90;;;;;;4970181;28;19929;-75
2023/01/03 14:09:44;;;;;;;;;;;13.80;99.90;;;;;;4972110;28;19937;-74
2023/01/03 14:12:41;;;;;;;;;;;13.50;99.90;;;;;;4981291;28;19930;-75
2023/01/03 14:15:13;;;;;;;;;;;13.40;99.90;;;;;;4941309;29;19926;-74
2023/01/03 14:17:44;;;;;;;;;;;12.80;99.90;;;;;;4969854;28;19926;-74
2023/01/03 14:20:13;;;;;;;;;;;12.60;99.90;;;;;;4974851;28;19929;-74
2023/01/03 14:22:42;;;;;;;;;;;13.20;99.90;;;;;;4973805;28;19934;-73
2023/01/03 14:25:30;;;;;;;;;;;13.20;99.90;;;;;;4971692;28;19926;-71
2023/01/03 14:27:57;;;;;;;;;;;13.80;99.90;;;;;;4977306;28;19925;-75
2023/01/03 14:30:29;;;;;;;;;;;14.60;99.90;;;;;;4973009;28;19926;-75
2023/01/03 14:32:56;;;;;;;;;;;14.50;99.90;;;;;;4973645;28;20397;-75
2023/01/03 14:35:33;;;;;;;;;;;13.90;99.90;;;;;;4972755;28;19929;-75
2023/01/03 14:38:00;;;;;;;;;;;13.80;99.90;;;;;;4978146;28;19926;-73
2023/01/03 14:40:27;;;;;;;;;;;13.50;99.90;;;;;;4972952;28;19982;-75
2023/01/03 14:42:54;;;;;;;;;;;13.50;99.90;;;;;;4972298;28;20413;-74
2023/01/03 14:45:21;;;;;;;;;;;13.80;99.90;;;;;;4970162;28;20357;-74
2023/01/03 14:47:51;;;;;;;;;;;13.40;99.90;;;;;;4972394;28;20349;-75
2023/01/03 14:50:20;;;;;;;;;;;13.30;99.90;;;;;;4970169;28;19926;-75
2023/01/03 14:52:47;;;;;;;;;;;13.20;99.90;;;;;;4974323;28;19933;-75
2023/01/03 14:55:15;;;;;;;;;;;13.00;99.90;;;;;;4971564;28;20390;-75
2023/01/03 14:57:43;;;;;;;;;;;12.70;99.90;;;;;;4977208;28;19926;-74
2023/01/03 15:00:15;;;;;;;;;;;12.80;99.90;;;;;;4969899;28;19938;-76
2023/01/03 15:02:42;;;;;;;;;;;12.80;99.90;;;;;;4978912;28;19933;-76
2023/01/03 15:05:21;;;;;;;;;;;12.40;99.90;;;;;;4971701;28;20331;-76
2023/01/03 15:07:48;;;;;;;;;;;12.40;99.90;;;;;;4971716;28;19926;-77
2023/01/03 15:10:19;;;;;;;;;;;11.60;99.90;;;;;;4975265;28;20364;-75
2023/01/03 15:12:47;;;;;;;;;;;10.60;99.90;;;;;;4975832;28;20303;-76
2023/01/03 15:15:19;;;;;;;;;;;10.30;99.90;;;;;;4975720;28;19985;-76
2023/01/03 15:17:46;;;;;;;;;;;10.00;99.90;;;;;;4972298;28;19941;-76
2023/01/03 15:20:16;;;;;;;;;;;9.80;99.90;;;;;;4968915;28;19930;-75
2023/01/03 15:22:43;;;;;;;;;;;9.70;99.90;;;;;;4967041;28;19934;-76
2023/01/03 15:25:16;;;;;;;;;;;9.50;99.90;;;;;;4970032;28;19930;-75
2023/01/03 15:27:44;;;;;;;;;;;9.50;99.90;;;;;;4971345;28;19926;-76
2023/01/03 15:30:21;;;;;;;;;;;9.30;99.90;;;;;;4970581;28;19933;-75
2023/01/03 15:32:55;;;;;;;;;;;9.30;99.90;;;;;;4971233;28;19989;-74
2023/01/03 15:35:29;;;;;;;;;;;9.10;99.90;;;;;;4970615;28;19926;-74
2023/01/03 15:37:56;;;;;;;;;;;9.10;99.90;;;;;;4984787;28;20377;-74
2023/01/03 15:40:23;;;;;;;;;;;9.00;99.90;;;;;;4971086;28;19930;-74
2023/01/03 15:45:36;;;;;;;;;;;8.80;99.90;;;;;;4966048;28;19922;-73
2023/01/03 15:48:04;;;;;;;;;;;8.80;99.90;;;;;;4973516;28;19926;-74
2023/01/03 15:50:39;;;;;;;;;;;8.70;99.90;;;;;;4985384;28;19937;-74
2023/01/03 15:53:05;;;;;;;;;;;8.70;99.90;;;;;;4977442;28;19926;-74
2023/01/03 15:55:32;;;;;;;;;;;8.60;99.90;;;;;;4982120;28;20001;-70
2023/01/03 15:57:59;;;;;;;;;;;8.60;99.90;;;;;;4970687;28;20127;-71
2023/01/03 16:00:26;;;;;;;;;;;8.50;99.90;;;;;;4967451;28;19926;-70
2023/01/03 16:02:52;;;;;;;;;;;8.50;99.90;;;;;;4999393;23;19986;-64
2023/01/03 16:05:19;;;;;;;;;;;8.50;99.90;;;;;;4973094;28;19969;-66
2023/01/03 16:07:47;;;;;;;;;;;8.40;99.90;;;;;;4970709;28;19969;-64
2023/01/03 16:10:14;;;;;;;;;;;8.40;99.90;;;;;;4970348;28;20025;-67
2023/01/03 16:12:41;;;;;;;;;;;8.40;99.90;;;;;;4970938;28;20456;-65
2023/01/03 16:15:08;;;;;;;;;;;8.40;99.90;;;;;;4970596;28;19933;-66
2023/01/03 16:17:35;;;;;;;;;;;8.40;99.90;;;;;;4967951;28;19957;-69
2023/01/03 16:20:01;;;;;;;;;;;8.40;99.90;;;;;;4966313;28;20058;-68
2023/01/03 16:22:29;;;;;;;;;;;8.40;99.90;;;;;;4970788;28;20353;-68
2023/01/03 16:24:57;;;;;;;;;;;8.40;99.90;;;;;;4971610;28;19958;-68
2023/01/03 16:27:24;;;;;;;;;;;8.30;99.90;;;;;;4970508;28;19930;-69
2023/01/03 16:29:51;;;;;;;;;;;8.40;99.90;;;;;;4968286;28;19926;-69
2023/01/03 16:32:19;;;;;;;;;;;8.40;99.90;;;;;;4970775;28;19978;-69
2023/01/03 16:34:45;;;;;;;;;;;8.40;99.90;;;;;;4969667;28;19938;-69
2023/01/03 16:37:12;;;;;;;;;;;8.30;99.90;;;;;;4970485;28;19930;-70
2023/01/03 16:39:39;;;;;;;;;;;8.20;99.90;;;;;;4969914;28;19977;-72
2023/01/03 16:42:13;;;;;;;;;;;8.20;99.90;;;;;;4970280;28;19926;-69
2023/01/03 16:44:41;;;;;;;;;;;8.20;99.90;;;;;;4970766;28;19926;-69
2023/01/03 16:47:10;;;;;;;;;;;8.10;99.90;;;;;;4972388;28;19926;-70
2023/01/03 16:49:37;;;;;;;;;;;8.10;99.90;;;;;;4973577;28;19926;-69
2023/01/03 16:52:04;;;;;;;;;;;8.10;99.90;;;;;;4974734;28;19934;-71
2023/01/03 16:54:31;;;;;;;;;;;8.20;99.90;;;;;;4973961;28;19930;-69
2023/01/03 16:56:57;;;;;;;;;;;8.20;99.90;;;;;;4973711;28;19937;-70
2023/01/03 16:59:26;;;;;;;;;;;8.10;99.90;;;;;;4969022;28;19930;-71
2023/01/03 17:01:53;;;;;;;;;;;8.10;99.90;;;;;;4987231;28;19926;-70
2023/01/03 17:04:19;;;;;;;;;;;8.00;99.90;;;;;;4974635;28;20415;-69
2023/01/03 17:06:46;;;;;;;;;;;8.00;99.90;;;;;;4979086;28;19933;-71
2023/01/03 17:09:16;;;;;;;;;;;8.10;99.90;;;;;;4972859;28;19926;-70
2023/01/03 17:11:43;;;;;;;;;;;8.20;99.90;;;;;;4973824;28;19927;-70
2023/01/03 17:14:14;;;;;;;;;;;8.20;99.90;;;;;;4973892;28;19926;-69
2023/01/03 17:16:42;;;;;;;;;;;8.10;99.90;;;;;;4973509;28;20385;-68
2023/01/03 17:19:13;;;;;;;;;;;8.10;99.90;;;;;;4975621;28;19934;-70
2023/01/03 17:21:40;;;;;;;;;;;8.10;99.90;;;;;;4973352;28;19926;-69
2023/01/03 17:24:11;;;;;;;;;;;8.10;99.90;;;;;;4975047;28;19926;-69
2023/01/03 17:26:38;;;;;;;;;;;8.00;99.90;;;;;;4970297;28;19977;-69
2023/01/03 17:29:06;;;;;;;;;;;8.10;99.90;;;;;;4989354;28;19926;-69
2023/01/03 17:31:33;;;;;;;;;;;8.00;99.90;;;;;;4976824;28;19926;-69
2023/01/03 17:34:02;;;;;;;;;;;8.00;99.90;;;;;;4972909;28;19938;-71
2023/01/03 17:36:30;;;;;;;;;;;8.00;99.90;;;;;;4973960;28;20377;-69
2023/01/03 17:39:00;;;;;;;;;;;8.00;99.90;;;;;;4972743;28;19934;-69
2023/01/03 17:41:27;;;;;;;;;;;8.10;99.90;;;;;;4976175;28;20009;-69
2023/01/03 17:43:54;;;;;;;;;;;8.10;99.90;;;;;;4973733;28;19937;-69
2023/01/03 17:49:26;;;;;;;;;;;8.20;99.90;;;;;;4971815;28;19923;-73
2023/01/03 17:51:55;;;;;;;;;;;8.10;99.90;;;;;;4970392;28;19930;-70
2023/01/03 17:54:24;;;;;;;;;;;8.10;99.90;;;;;;4980897;28;19930;-69
2023/01/03 17:56:50;;;;;;;;;;;8.10;99.90;;;;;;4973542;28;19925;-68
2023/01/03 17:59:17;;;;;;;;;;;8.20;99.90;;;;;;4971489;28;20468;-75
2023/01/03 18:01:44;;;;;;;;;;;8.20;99.90;;;;;;4973211;28;19930;-74
2023/01/03 18:04:12;;;;;;;;;;;8.20;99.90;;;;;;4973085;28;20397;-74
2023/01/03 18:06:39;;;;;;;;;;;8.10;99.90;;;;;;4973219;28;20393;-72
2023/01/03 18:09:07;;;;;;;;;;;8.20;99.90;;;;;;4972576;28;19930;-74
2023/01/03 18:11:34;;;;;;;;;;;8.20;99.90;;;;;;4971672;28;19930;-73
2023/01/03 18:14:01;;;;;;;;;;;8.20;99.90;;;;;;4968583;28;20305;-75
2023/01/03 18:16:28;;;;;;;;;;;8.30;99.90;;;;;;4975629;28;19926;-76
2023/01/03 18:18:55;;;;;;;;;;;8.30;99.90;;;;;;4973558;28;20392;-75
2023/01/03 18:21:26;;;;;;;;;;;8.20;99.90;;;;;;4972312;28;19948;-72
2023/01/03 18:23:55;;;;;;;;;;;8.30;99.90;;;;;;4973092;28;19926;-72
2023/01/03 18:26:22;;;;;;;;;;;8.20;99.90;;;;;;4981892;28;19926;-72
2023/01/03 18:28:49;;;;;;;;;;;8.20;99.90;;;;;;4976014;28;19980;-74
2023/01/03 18:31:17;;;;;;;;;;;8.10;99.90;;;;;;4970750;28;19949;-72
2023/01/03 18:33:44;;;;;;;;;;;8.10;99.90;;;;;;4972126;28;19930;-71
2023/01/03 18:36:22;;;;;;;;;;;8.10;99.90;;;;;;4978434;28;19981;-71
2023/01/03 18:38:50;;;;;;;;;;;8.20;99.90;;;;;;4973166;28;20020;-71
2023/01/03 18:41:18;;;;;;;;;;;8.20;99.90;;;;;;4975849;28;19933;-71
2023/01/03 18:43:45;;;;;;;;;;;8.20;99.90;;;;;;4965344;28;19930;-73
2023/01/03 18:46:13;;;;;;;;;;;8.10;99.90;;;;;;4967283;28;19930;-72
2023/01/03 18:48:40;;;;;;;;;;;8.10;99.90;;;;;;4963443;28;20358;-72
2023/01/03 18:51:09;;;;;;;;;;;8.10;99.90;;;;;;4973882;28;19934;-72
2023/01/03 18:53:36;;;;;;;;;;;8.10;99.90;;;;;;4971408;28;19927;-72
2023/01/03 18:56:04;;;;;;;;;;;8.10;99.90;;;;;;4974168;28;19926;-72
2023/01/03 18:58:33;;;;;;;;;;;8.20;99.90;;;;;;4968744;28;19930;-70
2023/01/03 19:01:01;;;;;;;;;;;8.20;99.90;;;;;;4969230;28;19926;-68
2023/01/03 19:03:29;;;;;;;;;;;8.20;99.90;;;;;;4972115;28;19926;-69
2023/01/03 19:05:57;;;;;;;;;;;8.20;99.90;;;;;;4968703;28;19938;-70
2023/01/03 19:08:25;;;;;;;;;;;8.30;99.90;;;;;;4985020;28;19930;-67
2023/01/03 19:10:52;;;;;;;;;;;8.20;99.90;;;;;;4976630;28;19926;-67
2023/01/03 19:13:26;;;;;;;;;;;8.20;99.90;;;;;;4979264;28;19930;-66
2023/01/03 19:15:53;;;;;;;;;;;8.30;99.90;;;;;;4980008;28;20405;-67
2023/01/03 19:18:19;;;;;;;;;;;8.20;99.90;;;;;;4978295;28;20000;-64
2023/01/03 19:20:47;;;;;;;;;;;8.30;99.90;;;;;;4981832;28;20350;-69
2023/01/03 19:23:17;;;;;;;;;;;8.20;99.90;;;;;;4975217;28;19997;-67
2023/01/03 19:25:44;;;;;;;;;;;8.30;99.90;;;;;;4973020;28;20456;-67
2023/01/03 19:28:11;;;;;;;;;;;8.40;99.90;;;;;;4981611;28;19925;-67
2023/01/03 19:30:40;;;;;;;;;;;8.40;99.90;;;;;;4979620;28;19926;-64